Ponchatoula, LA (70454)

12:36 AM CDT on June 23, 2017 (GMT -0500)
Pine Island | | Change Station
Active Advisory: Coastal Flood Advisory Active Notice: Coastal Flood Advisory

Elev 25 ft 30.46 °N, 90.45 °W | Updated 0 second ago

Mostly Cloudy
Mostly Cloudy
79.8 °F
Feels Like 84 °F
N
2.3
Wind Variable Wind from West
Gusts 2.3 mph

Today
High -- | Low -- °F
--% Chance of Precip.
Yesterday
High -- | Low -- °F
Precip. -- in
Pressure 29.87 in
Visibility 10.0 miles
Clouds Mostly Cloudy 1500 ft
Heat Index 84 °F
Dew Point 74 °F
Humidity 83%
Rainfall 0.00 in
Snow Depth Not available.
6:00 AM 8:07 PM
Waning Crescent, 1% visible
METAR KHDC 230515Z AUTO 18009G14KT 10SM BKN015 26/23 A2987 RMK AO2
Pressure 29.87 in
Visibility 10.0 miles
Clouds Mostly Cloudy 1500 ft
Heat Index 84 °F
Dew Point 74 °F
Humidity 83%
Rainfall 0.00 in
Snow Depth Not available.
6:00 AM 8:07 PM
Waning Crescent, 1% visible
METAR KHDC 230515Z AUTO 18009G14KT 10SM BKN015 26/23 A2987 RMK AO2

Get Your Daily Forecast Email!

Thanks for signing up!

Be on the lookout for a verification email in your inbox.

You'll start receiving severe weather alerts in your inbox..

×

10-Day Weather Forecast

Almanac

Astronomy

Jun. 23, 2017 Rise Set
Actual Time
Civil Twilight
Nautical Twilight
Astronomical Twilight
Moon
Length of Visible Light
Length of Day
Tomorrow will be .
, % of the Moon is Illuminated

Today's Extremes

State Highs State Lows

Community

WunderPhotos

Category 6

Welcome to Category 6. This is the collective home for Weather Underground's featured writeups by Dr. Jeff Masters (right), Bob Henson (left), Chris Burt, and other regular contributors.

Nearby

Air Quality

  Air Quality AQ Index Pollutant
Not available.

Snow Depth

Station Depth Elevation

Earthquake Activity

City Distance Mag. Time & Date
Minimum magnitude displayed is 2.5.

Coastal Water Temperatures

Place Temperature

Stations

Nearby Weather Stations

Station Location Temp. Windchill Dew Point Humidity Wind Precip. Elev Updated Type
                   

Watches & Warnings

Coastal Flood Advisory
Issued: 3:04 PM CDT Jun. 22, 2017 – National Weather Service

... Coastal flood advisory remains in effect until 4 PM CDT
Friday...

* coastal flooding... tides 1 to 3 feet above normal will
continue through the next high tide which will occur late
tomorrow morning and through the afternoon.

* Timing... now through tomorrow afternoon.

* Impacts... moderate flooding of low lying areas and access
roads near tidal lakes... bays and inlets as well as the open
coast outside hurricane protection levee systems.

Precautionary/preparedness actions...

A coastal flood advisory indicates that onshore winds and tides
will combine to generate flooding of low areas along the shore.